Time;durP1;ratioP1;P1;durP2;ratioP2;P2;SDS_P1;SDS_P2;PMS_P1;PMS_P2;Temp;Humidity;BMP_temperature;BMP_pressure;BME280_temperature;BME280_humidity;BME280_pressure;Samples;Min_cycle;Max_cycle;Signal;HPM_P1;HPM_P2
2022/01/07 00:00:29;;;;;;;26.90;13.10;;;;;;;-4.56;77.75;99138.34;219639;1278;25599;-74
2022/01/07 00:05:45;;;;;;;31.10;13.70;;;;;;;-4.58;77.88;99143.42;219695;1279;22736;-73
2022/01/07 00:10:55;;;;;;;29.50;14.10;;;;;;;-4.60;77.99;99147.38;219814;1279;24308;-74
2022/01/07 00:16:00;;;;;;;27.70;13.30;;;;;;;-4.59;78.34;99149.06;219702;1279;22696;-74
2022/01/07 00:21:03;;;;;;;24.70;12.30;;;;;;;-4.60;78.45;99149.63;219581;1279;26021;-72
2022/01/07 00:26:08;;;;;;;22.80;12.00;;;;;;;-4.61;78.35;99148.17;219856;1279;24038;-71
2022/01/07 00:31:11;;;;;;;25.90;12.20;;;;;;;-4.65;78.22;99150.41;219494;1279;26747;-73
2022/01/07 00:36:27;;;;;;;26.10;12.60;;;;;;;-4.74;78.14;99149.55;219459;1279;22818;-73
2022/01/07 00:41:38;;;;;;;28.40;12.40;;;;;;;-4.85;78.20;99150.10;219677;1279;24049;-74
2022/01/07 00:46:43;;;;;;;19.50;9.90;;;;;;;-4.94;78.31;99156.81;219450;1279;24384;-73
2022/01/07 00:52:17;;;;;;;16.80;8.70;;;;;;;-5.01;78.55;99163.08;219537;1279;22564;-74
2022/01/07 00:57:41;;;;;;;23.70;11.40;;;;;;;-5.06;78.69;99165.96;219352;1279;22852;-73
2022/01/07 01:02:50;;;;;;;28.70;12.00;;;;;;;-5.10;78.80;99172.38;219478;1279;23516;-72
2022/01/07 01:08:12;;;;;;;37.30;20.30;;;;;;;-5.18;78.74;99167.14;219594;1279;25676;-73
2022/01/07 01:13:15;;;;;;;55.40;27.60;;;;;;;-5.23;78.99;99166.11;219619;1279;24332;-73
2022/01/07 01:18:23;;;;;;;58.40;28.00;;;;;;;-5.21;79.52;99170.80;219459;1279;23461;-72
2022/01/07 01:23:33;;;;;;;63.50;28.60;;;;;;;-5.21;79.68;99163.25;219458;1279;25668;-73
2022/01/07 01:28:35;;;;;;;;;;;;;;;-5.23;79.76;99158.15;219271;1279;22545;-73
2022/01/07 01:33:52;;;;;;;43.70;21.60;;;;;;;-5.25;79.99;99149.84;219639;1279;22808;-73
2022/01/07 01:39:03;;;;;;;41.40;21.40;;;;;;;-5.25;80.38;99144.77;219632;1279;24261;-73
2022/01/07 01:44:05;;;;;;;35.30;17.30;;;;;;;-5.22;80.59;99140.64;219662;1279;22676;-73
2022/01/07 01:49:10;;;;;;;41.00;19.50;;;;;;;-5.23;80.52;99135.84;219589;1279;22658;-73
2022/01/07 01:54:13;;;;;;;41.90;20.00;;;;;;;-5.26;80.38;99144.39;219561;1279;25532;-73
2022/01/07 01:59:28;;;;;;;56.70;24.60;;;;;;;-5.36;79.98;99143.96;219636;1279;23330;-72
2022/01/07 02:04:33;;;;;;;63.60;29.10;;;;;;;-5.45;79.95;99140.09;219750;1279;22670;-73
2022/01/07 02:09:37;;;;;;;66.60;30.60;;;;;;;-5.47;80.23;99135.63;219666;1279;22723;-74
2022/01/07 02:15:02;;;;;;;76.20;33.70;;;;;;;-5.49;80.33;99142.41;219675;1279;22749;-73
2022/01/07 02:20:05;;;;;;;70.90;31.20;;;;;;;-5.50;80.32;99146.02;219675;1279;24292;-70
2022/01/07 02:25:22;;;;;;;81.70;36.70;;;;;;;-5.54;80.27;99144.61;219520;1279;25505;-73
2022/01/07 02:30:52;;;;;;;88.60;38.20;;;;;;;-5.58;80.41;99147.68;219680;1279;25511;-72
2022/01/07 02:36:15;;;;;;;;;;;;;;;;;;;;;
2022/01/07 02:41:20;;;;;;;79.70;34.00;;;;;;;-5.65;80.46;99143.75;219626;1279;23408;-72
2022/01/07 02:46:28;;;;;;;70.20;32.00;;;;;;;-5.65;80.37;99143.98;219481;1279;22862;-72
2022/01/07 02:51:31;;;;;;;70.10;30.80;;;;;;;-5.67;80.59;99146.87;219574;1279;24076;-73
2022/01/07 02:56:34;;;;;;;67.90;31.10;;;;;;;-5.68;80.53;99147.13;219610;1279;25626;-72
2022/01/07 03:01:43;;;;;;;56.90;27.20;;;;;;;-5.68;80.77;99141.12;219468;1279;22821;-71
2022/01/07 03:07:16;;;;;;;;;;;;;;;;;;;;;
2022/01/07 03:12:23;;;;;;;68.00;31.10;;;;;;;-5.69;80.78;99133.88;219898;1280;24256;-74
2022/01/07 03:17:49;;;;;;;50.30;21.70;;;;;;;-5.69;80.80;99128.85;219618;1279;25621;-73
2022/01/07 03:23:19;;;;;;;67.60;30.20;;;;;;;-5.69;80.89;99126.93;219733;1279;22780;-72
2022/01/07 03:28:22;;;;;;;60.40;29.00;;;;;;;-5.69;80.99;99123.41;219548;1280;22729;-73
2022/01/07 03:33:44;;;;;;;;;;;;;;;;;;;;;
2022/01/07 03:39:08;;;;;;;69.90;31.60;;;;;;;-5.65;81.21;99122.31;219460;1281;23289;-73
2022/01/07 03:44:16;;;;;;;67.30;29.40;;;;;;;-5.65;81.18;99123.27;219660;1279;23650;-73
2022/01/07 03:49:18;;;;;;;71.90;31.00;;;;;;;-5.68;81.10;99129.31;219423;1281;22669;-70
2022/01/07 03:54:39;;;;;;;69.00;31.80;;;;;;;-5.71;81.03;99127.66;218441;1281;22764;-71
2022/01/07 03:59:52;;;;;;;70.50;32.50;;;;;;;-5.73;81.14;99125.27;218591;1280;24226;-71
2022/01/07 04:05:04;;;;;;;;;;;;;;;;;;;;;
2022/01/07 04:10:12;;;;;;;63.90;29.30;;;;;;;-5.74;81.07;99129.73;219271;1280;22807;-70
2022/01/07 04:15:21;;;;;;;55.30;26.40;;;;;;;-5.74;81.15;99134.88;219341;1279;25504;-71
2022/01/07 04:20:36;;;;;;;46.20;21.80;;;;;;;-5.76;81.04;99138.31;219241;1281;24476;-70
2022/01/07 04:25:41;;;;;;;52.50;23.60;;;;;;;-5.75;81.08;99148.21;219149;1281;22680;-72
2022/01/07 04:30:45;;;;;;;44.70;23.40;;;;;;;-5.75;81.19;99153.73;219470;1279;22789;-71
2022/01/07 04:36:19;;;;;;;61.20;27.50;;;;;;;-5.77;80.98;99151.36;218366;1281;22827;-69
2022/01/07 04:41:22;;;;;;;54.80;28.70;;;;;;;-5.81;80.95;99153.19;218401;1281;22780;-70
2022/01/07 04:46:27;;;;;;;54.20;26.80;;;;;;;-5.86;80.95;99155.42;218352;1281;22677;-70
2022/01/07 04:51:56;;;;;;;59.60;27.80;;;;;;;-5.92;80.85;99146.95;218427;1280;22666;-70
2022/01/07 04:57:04;;;;;;;39.60;20.80;;;;;;;-5.97;80.87;99145.84;218440;1280;22762;-71
2022/01/07 05:02:06;;;;;;;58.20;28.40;;;;;;;-6.03;80.91;99141.73;218681;1279;22749;-70
2022/01/07 05:07:09;;;;;;;54.90;26.80;;;;;;;-6.06;81.15;99140.67;218269;1281;22839;-71
2022/01/07 05:12:21;;;;;;;65.20;29.30;;;;;;;-6.08;81.24;99132.23;218467;1280;23377;-70
2022/01/07 05:17:24;;;;;;;47.90;22.30;;;;;;;-6.09;81.40;99122.11;218345;1281;22636;-70
2022/01/07 05:22:28;;;;;;;36.50;19.10;;;;;;;-6.08;81.59;99117.77;218422;1281;25566;-70
2022/01/07 05:27:42;;;;;;;51.70;24.10;;;;;;;-6.03;81.50;99113.27;218347;1281;22743;-70
2022/01/07 05:32:44;;;;;;;34.20;16.90;;;;;;;-6.00;81.72;99110.51;218594;1280;22811;-71
2022/01/07 05:37:49;;;;;;;42.00;21.80;;;;;;;-5.96;81.93;99116.07;218525;1281;22731;-71
2022/01/07 05:43:00;;;;;;;36.70;16.20;;;;;;;-5.93;81.84;99103.19;219517;1281;22687;-72
2022/01/07 05:48:03;;;;;;;37.50;17.00;;;;;;;-5.91;81.88;99099.55;219244;1281;26037;-70
2022/01/07 05:53:06;;;;;;;32.50;17.40;;;;;;;-5.91;81.78;99095.19;218764;1280;25520;-70
2022/01/07 05:58:09;;;;;;;29.60;14.90;;;;;;;-5.92;81.81;99080.68;218323;1279;22877;-70
2022/01/07 06:03:11;;;;;;;29.90;15.50;;;;;;;-5.95;81.82;99079.79;218684;1280;26023;-72
2022/01/07 06:08:13;;;;;;;30.50;14.60;;;;;;;-5.96;81.85;99074.36;218552;1279;22759;-70
2022/01/07 06:13:28;;;;;;;30.50;15.10;;;;;;;-5.98;81.79;99076.23;218689;1279;22900;-69
2022/01/07 06:18:34;;;;;;;37.60;19.20;;;;;;;-6.03;81.72;99074.59;218409;1279;25553;-71
2022/01/07 06:23:36;;;;;;;36.80;16.20;;;;;;;-6.06;81.71;99075.65;218570;1279;22805;-69
2022/01/07 06:28:39;;;;;;;38.90;15.70;;;;;;;-6.09;81.85;99080.62;218405;1279;22821;-70
2022/01/07 06:33:42;;;;;;;40.10;16.60;;;;;;;-6.11;81.65;99083.64;218658;1278;22735;-70
2022/01/07 06:38:44;;;;;;;32.70;15.00;;;;;;;-6.10;81.76;99081.81;218752;1279;22675;-70
2022/01/07 06:43:46;;;;;;;34.40;14.80;;;;;;;-6.07;81.80;99085.50;218764;1279;23008;-69
2022/01/07 06:48:49;;;;;;;31.40;14.30;;;;;;;-6.06;81.71;99080.16;218634;1279;25552;-70
2022/01/07 06:53:51;;;;;;;26.00;12.50;;;;;;;-6.04;81.78;99086.01;218414;1279;25637;-70
2022/01/07 06:58:56;;;;;;;32.10;13.40;;;;;;;-6.00;81.69;99084.95;218652;1277;22784;-70
2022/01/07 07:03:59;;;;;;;26.50;11.90;;;;;;;-5.96;81.69;99088.25;219532;1279;22837;-70
2022/01/07 07:09:03;;;;;;;28.20;12.30;;;;;;;-5.90;81.60;99086.42;219700;1279;24352;-70
2022/01/07 07:14:05;;;;;;;26.00;11.70;;;;;;;-5.83;81.70;99093.25;219563;1279;22645;-71
2022/01/07 07:19:08;;;;;;;24.30;11.10;;;;;;;-5.74;81.50;99093.64;218736;1278;25504;-71
2022/01/07 07:24:18;;;;;;;26.10;11.10;;;;;;;-5.64;81.39;99097.70;218617;1279;22698;-71
2022/01/07 07:29:27;;;;;;;27.30;13.50;;;;;;;-5.53;81.42;99101.10;219445;1279;22846;-71
2022/01/07 07:40:02;;;;;;;25.70;12.80;;;;;;;-5.28;81.10;99088.31;219379;1279;22721;-71
2022/01/07 07:45:06;;;;;;;25.50;12.10;;;;;;;-5.16;80.90;99082.27;218429;1279;25666;-71
2022/01/07 07:50:11;;;;;;;24.30;11.20;;;;;;;-5.03;80.79;99081.84;218352;1279;22684;-71
2022/01/07 07:55:16;;;;;;;21.60;9.40;;;;;;;-4.88;80.49;99081.84;218465;1279;24315;-70
2022/01/07 08:00:31;;;;;;;29.90;11.40;;;;;;;-4.42;80.91;99093.56;219491;1279;24266;-70
2022/01/07 08:05:40;;;;;;;30.60;13.00;;;;;;;-3.98;79.63;99095.94;219214;1279;22741;-70
2022/01/07 08:10:49;;;;;;;24.20;11.20;;;;;;;-3.84;79.25;99089.52;219455;1279;22679;-70
2022/01/07 08:15:58;;;;;;;19.50;9.30;;;;;;;-3.58;78.88;99093.38;219458;1279;22880;-71
2022/01/07 08:21:10;;;;;;;26.40;10.90;;;;;;;-3.48;78.51;99084.77;219463;1279;126904;-71
2022/01/07 08:26:15;;;;;;;22.10;8.50;;;;;;;-3.32;78.36;99083.15;219756;1279;22921;-71
2022/01/07 08:36:24;;;;;;;21.00;9.40;;;;;;;-3.08;77.55;99065.95;219686;1279;26067;-70
2022/01/07 08:41:29;;;;;;;22.10;10.00;;;;;;;-2.93;77.45;99065.34;219819;1279;25627;-71
2022/01/07 08:46:36;;;;;;;21.60;10.10;;;;;;;-2.74;76.87;99060.02;219847;1279;22581;-71
2022/01/07 08:51:50;;;;;;;18.30;7.90;;;;;;;-1.80;77.69;99063.41;219491;1279;25239;-70
2022/01/07 08:56:52;;;;;;;20.70;7.80;;;;;;;-1.62;74.48;99078.27;219570;1279;25326;-71
2022/01/07 09:01:55;;;;;;;18.40;7.30;;;;;;;-1.78;73.68;99079.11;219517;1279;22718;-71
2022/01/07 09:07:03;;;;;;;17.10;7.50;;;;;;;-1.88;73.44;99079.20;219293;1279;22593;-70
2022/01/07 09:12:14;;;;;;;16.70;7.10;;;;;;;-1.84;73.79;99079.09;218713;1278;25687;-71
2022/01/07 09:17:16;;;;;;;12.60;6.20;;;;;;;-1.79;73.12;99081.89;218329;1279;23199;-70
2022/01/07 09:22:18;;;;;;;21.30;6.90;;;;;;;-1.71;72.59;99083.42;219394;1279;23016;-70
2022/01/07 09:27:21;;;;;;;12.50;6.10;;;;;;;-1.64;72.04;99081.59;219358;1279;22547;-70
2022/01/07 09:32:23;;;;;;;18.20;7.70;;;;;;;-1.56;71.87;99076.12;218442;1279;22793;-70
2022/01/07 09:37:29;;;;;;;13.20;6.50;;;;;;;-1.41;72.50;99072.83;218388;1279;24257;-71
2022/01/07 09:42:37;;;;;;;16.20;6.40;;;;;;;-1.23;72.36;99078.74;218508;1279;24327;-71
2022/01/07 09:47:39;;;;;;;15.50;7.50;;;;;;;-1.10;70.87;99073.96;219465;1278;25391;-70
2022/01/07 09:52:51;;;;;;;14.20;7.40;;;;;;;-1.02;70.37;99064.85;219418;1279;25597;-71
2022/01/07 09:57:53;;;;;;;12.30;5.40;;;;;;;-0.95;69.45;99061.67;219355;1279;25562;-70
2022/01/07 10:03:07;;;;;;;12.80;5.30;;;;;;;-0.84;68.11;99054.85;219723;1279;26662;-71
2022/01/07 10:08:19;;;;;;;14.20;5.80;;;;;;;-0.74;67.33;99044.57;219571;1279;25380;-71
2022/01/07 10:13:22;;;;;;;12.00;6.30;;;;;;;-0.57;68.42;99036.77;219657;1279;23775;-71
2022/01/07 10:18:37;;;;;;;13.00;6.30;;;;;;;-0.37;68.52;99023.05;220616;1279;22801;-71
2022/01/07 10:23:43;;;;;;;14.30;6.40;;;;;;;-0.19;66.85;99012.48;220202;1279;24248;-71
2022/01/07 10:28:47;;;;;;;12.80;5.60;;;;;;;-0.08;65.43;99001.05;219785;1279;22723;-70
2022/01/07 10:33:53;;;;;;;13.60;6.00;;;;;;;-0.02;65.89;98999.27;219810;1279;24292;-71
2022/01/07 10:39:06;;;;;;;9.90;4.70;;;;;;;0.06;65.75;98987.28;219506;1279;25442;-70
2022/01/07 10:44:15;;;;;;;9.30;4.50;;;;;;;0.10;63.84;98971.30;218902;1279;22907;-70
2022/01/07 10:49:31;;;;;;;10.00;4.20;;;;;;;0.15;62.86;98976.18;218713;1279;22547;-70
2022/01/07 10:54:49;;;;;;;13.20;5.30;;;;;;;0.30;63.76;98976.14;219012;1279;22554;-71
2022/01/07 11:00:15;;;;;;;9.30;4.70;;;;;;;0.55;63.27;98970.29;218866;1276;22686;-69
2022/01/07 11:05:27;;;;;;;12.00;5.50;;;;;;;0.76;61.70;98956.36;219086;1279;24362;-69
2022/01/07 11:10:56;;;;;;;11.80;5.40;;;;;;;0.99;61.73;98966.17;218993;1279;22735;-70
2022/01/07 11:21:36;;;;;;;9.60;4.30;;;;;;;1.33;58.58;98954.76;218902;1279;22550;-70
2022/01/07 11:26:59;;;;;;;8.60;4.40;;;;;;;1.35;54.09;98950.66;218923;1279;22587;-71
2022/01/07 11:32:46;;;;;;;10.40;4.60;;;;;;;1.32;54.94;98944.81;218760;1279;22565;-70
2022/01/07 11:38:00;;;;;;;9.60;4.30;;;;;;;1.41;57.13;98933.91;219732;1279;25393;-71
2022/01/07 11:43:31;;;;;;;6.70;3.50;;;;;;;1.53;55.80;98928.08;219698;1279;22583;-70
2022/01/07 11:48:56;;;;;;;5.90;2.30;;;;;;;1.59;51.16;98930.02;219895;1279;24837;-70
2022/01/07 11:54:09;;;;;;;6.50;2.70;;;;;;;1.49;50.81;98931.02;220146;1279;22570;-71
2022/01/07 11:59:16;;;;;;;4.80;2.60;;;;;;;1.45;51.15;98926.73;219979;1279;22820;-71
2022/01/07 12:04:42;;;;;;;4.20;2.80;;;;;;;1.42;49.48;98918.56;220138;1279;22625;-71
2022/01/07 12:10:36;;;;;;;6.90;3.10;;;;;;;1.42;51.32;98915.77;219688;1279;24406;-72
2022/01/07 12:16:08;;;;;;;6.00;2.60;;;;;;;1.49;52.05;98915.59;219732;1279;22544;-71
2022/01/07 12:21:13;;;;;;;5.20;2.20;;;;;;;1.54;49.03;98911.02;219614;1279;22547;-72
2022/01/07 12:26:24;;;;;;;8.60;3.00;;;;;;;1.43;49.79;98906.82;218684;1278;22588;-70
2022/01/07 12:31:26;;;;;;;;;;;;;;;1.26;47.14;98905.75;219420;1279;25329;-70
2022/01/07 12:36:56;;;;;;;4.80;2.10;;;;;;;1.02;47.20;98905.54;219448;1279;23148;-72
2022/01/07 12:42:09;;;;;;;6.60;2.50;;;;;;;0.92;46.05;98903.72;218525;1279;22825;-70
2022/01/07 12:47:17;;;;;;;4.60;2.30;;;;;;;0.85;46.03;98899.33;218675;1279;22515;-70
2022/01/07 12:52:27;;;;;;;6.30;2.90;;;;;;;0.79;46.90;98896.89;218831;1279;22589;-72
2022/01/07 12:57:51;;;;;;;6.30;2.90;;;;;;;0.75;46.97;98895.11;219584;1279;22569;-70
2022/01/07 13:02:59;;;;;;;6.40;3.00;;;;;;;0.75;47.37;98891.50;219753;1279;22581;-70
2022/01/07 13:08:17;;;;;;;5.70;2.60;;;;;;;0.81;48.19;98891.40;219600;1278;25633;-70
2022/01/07 13:13:42;;;;;;;7.80;2.60;;;;;;;0.84;47.18;98888.23;218348;1279;25471;-71
2022/01/07 13:18:45;;;;;;;6.60;2.60;;;;;;;0.84;46.43;98885.06;219450;1279;25324;-70
2022/01/07 13:23:49;;;;;;;6.10;3.00;;;;;;;0.82;47.19;98883.53;218619;1279;25451;-70
2022/01/07 13:28:57;;;;;;;6.20;2.60;;;;;;;0.81;48.28;98884.44;218483;1279;25415;-71
2022/01/07 13:34:02;;;;;;;5.20;2.60;;;;;;;0.81;46.78;98885.98;219082;1279;24282;-70
2022/01/07 13:39:25;;;;;;;6.20;2.80;;;;;;;0.79;47.59;98876.29;218358;1279;22575;-71
2022/01/07 13:45:03;;;;;;;4.70;2.40;;;;;;;0.77;47.31;98867.09;218488;1279;22600;-70
2022/01/07 13:50:31;;;;;;;7.10;3.30;;;;;;;0.73;47.48;98866.13;218690;1279;24780;-71
2022/01/07 13:55:42;;;;;;;11.90;3.50;;;;;;;0.68;48.26;98858.76;218562;1279;23049;-71
2022/01/07 14:01:10;;;;;;;7.00;3.90;;;;;;;0.63;48.47;98855.99;218457;1279;24128;-71
2022/01/07 14:06:15;;;;;;;7.30;3.60;;;;;;;0.57;48.54;98849.04;218515;1279;22746;-70
2022/01/07 14:11:18;;;;;;;7.20;3.40;;;;;;;0.52;48.99;98847.64;218402;1279;22647;-71
2022/01/07 14:16:22;;;;;;;6.50;2.90;;;;;;;0.46;49.25;98841.66;219390;1279;25498;-71
2022/01/07 14:21:39;;;;;;;7.50;3.40;;;;;;;0.39;49.42;98835.13;218398;1279;25282;-70
2022/01/07 14:26:46;;;;;;;7.90;3.60;;;;;;;0.31;49.14;98840.65;219585;1279;23904;-71
2022/01/07 14:31:51;;;;;;;11.00;4.50;;;;;;;0.23;50.26;98843.89;219522;1279;22645;-70
2022/01/07 14:36:56;;;;;;;8.50;4.10;;;;;;;0.14;50.42;98833.86;219280;1277;22642;-71
2022/01/07 14:42:01;;;;;;;11.30;4.60;;;;;;;0.06;50.58;98834.06;219820;1279;25258;-70
2022/01/07 14:47:05;;;;;;;10.80;5.10;;;;;;;-0.01;50.63;98837.24;219429;1279;23969;-70
2022/01/07 14:52:11;;;;;;;11.20;5.00;;;;;;;-0.07;50.70;98829.13;218719;1279;22552;-71
2022/01/07 14:57:15;;;;;;;14.90;5.80;;;;;;;-0.16;50.96;98823.48;218773;1279;22645;-71
2022/01/07 15:02:51;;;;;;;;;;;;;;;;;;;;;
2022/01/07 15:08:04;;;;;;;18.70;8.30;;;;;;;-0.34;52.77;98826.66;218435;1279;23848;-70
2022/01/07 15:13:31;;;;;;;16.80;7.60;;;;;;;-0.47;53.00;98823.47;218541;1279;25464;-69
2022/01/07 15:19:08;;;;;;;20.30;8.90;;;;;;;-0.60;53.61;98823.55;218742;1279;24159;-70
2022/01/07 15:24:12;;;;;;;18.70;9.80;;;;;;;-0.70;54.15;98823.40;218594;1279;24259;-71
2022/01/07 15:29:18;;;;;;;19.20;8.30;;;;;;;-0.80;54.51;98824.36;218420;1279;22565;-70
2022/01/07 15:34:25;;;;;;;20.20;9.20;;;;;;;-0.88;54.86;98823.56;218604;1279;22499;-71
2022/01/07 15:39:33;;;;;;;21.80;9.10;;;;;;;-0.98;55.83;98824.07;218621;1279;25461;-71
2022/01/07 15:44:45;;;;;;;19.30;9.40;;;;;;;-1.09;56.03;98817.26;219579;1279;25457;-71
2022/01/07 15:50:00;;;;;;;24.50;12.20;;;;;;;-1.17;56.12;98812.32;218764;1279;22668;-70
2022/01/07 15:55:27;;;;;;;;;;;;;;;;;;;;;
2022/01/07 16:00:32;;;;;;;23.80;10.90;;;;;;;-1.30;56.47;98800.58;218591;1279;24322;-70
2022/01/07 16:05:55;;;;;;;32.60;13.90;;;;;;;-1.34;56.69;98795.14;218683;1279;22668;-70
2022/01/07 16:12:01;;;;;;;40.90;16.70;;;;;;;-1.42;57.01;98789.57;219711;1279;24572;-69
2022/01/07 16:17:22;;;;;;;42.60;17.40;;;;;;;-1.48;57.14;98791.72;218537;1279;25280;-70
2022/01/07 16:22:55;;;;;;;38.90;15.90;;;;;;;-1.55;57.68;98785.94;219592;1279;22554;-70
2022/01/07 16:28:11;;;;;;;;;;;;;;;;;;;;;
2022/01/07 16:33:20;;;;;;;39.40;14.70;;;;;;;-1.76;58.14;98777.50;219349;1279;25695;-69
2022/01/07 16:38:28;;;;;;;36.90;14.40;;;;;;;-1.84;58.61;98779.64;219454;1279;25369;-70
2022/01/07 16:43:44;;;;;;;38.70;15.50;;;;;;;-1.88;58.36;98780.20;218384;1279;22538;-70
2022/01/07 16:48:47;;;;;;;38.30;16.10;;;;;;;-1.91;58.68;98782.68;218500;1279;25501;-69
2022/01/07 16:53:52;;;;;;;47.60;18.80;;;;;;;-1.93;58.45;98781.84;218521;1279;25634;-70
2022/01/07 16:59:16;;;;;;;38.40;17.00;;;;;;;-1.96;58.45;98780.48;218597;1279;25578;-70
2022/01/07 17:04:38;;;;;;;48.10;19.50;;;;;;;-1.99;58.80;98777.36;218647;1279;25440;-70
2022/01/07 17:09:51;;;;;;;89.40;38.00;;;;;;;-2.02;58.98;98771.48;218533;1279;24291;-69
2022/01/07 17:14:53;;;;;;;53.40;23.70;;;;;;;-2.02;59.22;98766.64;218466;1279;22573;-69
2022/01/07 17:19:58;;;;;;;42.70;19.20;;;;;;;-2.10;59.41;98761.98;218490;1279;22657;-69
2022/01/07 17:25:01;;;;;;;36.90;17.40;;;;;;;-2.18;59.80;98761.95;218491;1279;25638;-69
2022/01/07 17:30:08;;;;;;;36.60;16.00;;;;;;;-2.23;60.07;98755.21;218441;1279;22747;-69
2022/01/07 17:35:14;;;;;;;31.20;13.80;;;;;;;-2.22;60.21;98758.29;218791;1279;22599;-70
2022/01/07 17:40:20;;;;;;;35.40;15.90;;;;;;;-2.22;60.03;98760.55;219477;1279;24340;-69
2022/01/07 17:45:43;;;;;;;39.60;18.70;;;;;;;-2.28;59.85;98756.77;219628;1279;22663;-70
2022/01/07 17:50:52;;;;;;;44.30;17.30;;;;;;;-2.34;59.72;98752.23;219202;1279;25355;-70
2022/01/07 17:56:02;;;;;;;51.00;19.70;;;;;;;-2.40;59.63;98750.52;219447;1279;22728;-70
2022/01/07 18:01:04;;;;;;;52.90;18.90;;;;;;;-2.43;59.63;98748.27;219551;1279;22725;-69
2022/01/07 18:06:06;;;;;;;59.90;21.10;;;;;;;-2.48;59.87;98748.64;218668;1279;22599;-71
2022/01/07 18:11:09;;;;;;;54.00;21.50;;;;;;;-2.57;59.99;98749.42;218613;1279;25575;-70
2022/01/07 18:16:11;;;;;;;63.20;24.20;;;;;;;-2.68;60.31;98752.24;219013;1279;22553;-70
2022/01/07 18:21:26;;;;;;;44.90;18.60;;;;;;;-2.79;60.34;98748.14;219607;1278;22729;-71
2022/01/07 18:26:51;;;;;;;45.30;20.00;;;;;;;-2.88;60.71;98748.06;218542;1279;22591;-70
2022/01/07 18:37:19;;;;;;;57.00;20.40;;;;;;;-2.93;60.94;98735.06;218459;1279;22562;-70
2022/01/07 18:42:32;;;;;;;57.00;21.20;;;;;;;-2.93;61.17;98734.43;218858;1279;22560;-70
2022/01/07 18:47:34;;;;;;;48.20;20.40;;;;;;;-2.94;61.27;98732.25;218587;1279;22585;-70
2022/01/07 18:52:37;;;;;;;52.60;21.20;;;;;;;-2.98;61.34;98733.95;218547;1279;25504;-69
2022/01/07 18:57:55;;;;;;;44.50;17.80;;;;;;;-3.02;61.33;98741.19;219706;1279;25741;-70
2022/01/07 19:02:58;;;;;;;47.20;19.10;;;;;;;-3.06;61.17;98737.64;218726;1279;22586;-70
2022/01/07 19:08:03;;;;;;;50.30;19.60;;;;;;;-3.10;61.29;98735.42;218416;1279;22626;-71
2022/01/07 19:13:06;;;;;;;43.10;19.10;;;;;;;-3.16;61.13;98727.40;218566;1279;22616;-70
2022/01/07 19:18:16;;;;;;;50.20;21.30;;;;;;;-3.18;61.07;98720.85;218484;1279;23806;-70
2022/01/07 19:23:19;;;;;;;52.70;20.60;;;;;;;-3.17;61.01;98721.63;218643;1279;22563;-70
2022/01/07 19:28:21;;;;;;;48.50;21.00;;;;;;;-3.15;60.70;98724.13;218681;1279;22921;-70
2022/01/07 19:33:24;;;;;;;52.40;22.20;;;;;;;-3.13;60.55;98719.21;218624;1279;25513;-70
2022/01/07 19:38:29;;;;;;;54.70;22.10;;;;;;;-3.16;60.54;98714.17;218707;1279;23066;-69
2022/01/07 19:43:32;;;;;;;56.70;23.10;;;;;;;-3.24;60.64;98710.86;219259;1279;24268;-71
2022/01/07 19:48:38;;;;;;;57.60;22.00;;;;;;;-3.35;61.07;98705.66;219600;1279;23991;-70
2022/01/07 19:53:43;;;;;;;48.40;20.50;;;;;;;-3.47;61.12;98704.66;218348;1279;24263;-70
2022/01/07 19:58:49;;;;;;;53.30;21.10;;;;;;;-3.58;61.31;98716.95;218568;1279;24883;-71
2022/01/07 20:03:52;;;;;;;48.40;17.60;;;;;;;-3.67;61.52;98718.83;218738;1279;23822;-70
2022/01/07 20:08:54;;;;;;;58.40;23.30;;;;;;;-3.75;61.78;98716.55;219554;1279;22683;-71
2022/01/07 20:13:56;;;;;;;58.50;25.70;;;;;;;-3.81;61.92;98718.30;219677;1279;22747;-71
2022/01/07 20:19:06;;;;;;;56.80;25.00;;;;;;;-3.84;62.30;98717.33;219626;1279;139081;-71
2022/01/07 20:24:09;;;;;;;59.20;25.10;;;;;;;-3.84;62.70;98724.81;219605;1279;25400;-71
2022/01/07 20:29:20;;;;;;;56.90;23.80;;;;;;;-3.85;62.98;98724.04;219650;1279;22869;-70
2022/01/07 20:34:26;;;;;;;59.70;22.40;;;;;;;-3.89;62.85;98718.64;218706;1279;22746;-70
2022/01/07 20:39:44;;;;;;;53.30;22.20;;;;;;;-4.00;62.63;98716.26;218670;1279;25579;-70
2022/01/07 20:45:07;;;;;;;63.40;24.40;;;;;;;-4.14;62.56;98706.94;218610;1279;22558;-70
2022/01/07 20:50:21;;;;;;;72.40;26.00;;;;;;;-4.25;62.62;98703.98;218654;1279;22785;-71
2022/01/07 20:55:38;;;;;;;69.40;26.00;;;;;;;-4.36;62.86;98706.95;218588;1279;22862;-70
2022/01/07 21:00:53;;;;;;;60.50;24.20;;;;;;;-4.46;62.89;98703.27;219755;1279;22692;-71
2022/01/07 21:06:17;;;;;;;49.10;19.60;;;;;;;-4.48;62.96;98701.38;218561;1279;22655;-71
2022/01/07 21:11:20;;;;;;;50.40;20.40;;;;;;;-4.45;62.82;98706.29;219529;1279;22713;-70
2022/01/07 21:16:25;;;;;;;50.00;18.90;;;;;;;-4.46;62.75;98707.74;219628;1279;22679;-70
2022/01/07 21:21:43;;;;;;;51.00;20.30;;;;;;;-4.48;62.63;98697.75;218852;1279;24228;-71
2022/01/07 21:27:15;;;;;;;60.70;22.20;;;;;;;-4.55;62.93;98689.00;219684;1279;22649;-70
2022/01/07 21:32:26;;;;;;;66.90;25.20;;;;;;;-4.65;63.14;98674.92;219328;1281;22637;-70
2022/01/07 21:37:37;;;;;;;62.40;23.60;;;;;;;-4.76;63.36;98677.00;219501;1280;24044;-70
2022/01/07 21:42:56;;;;;;;63.50;24.60;;;;;;;-4.84;63.53;98680.77;219463;1279;22615;-70
2022/01/07 21:48:15;;;;;;;67.80;24.60;;;;;;;-4.88;63.82;98681.60;218485;1279;22686;-70
2022/01/07 21:53:17;;;;;;;62.30;24.30;;;;;;;-4.88;64.22;98681.61;218655;1279;25386;-71
2022/01/07 21:58:28;;;;;;;63.40;24.60;;;;;;;-4.85;64.63;98686.98;219522;1279;24195;-70
2022/01/07 22:03:30;;;;;;;68.70;26.20;;;;;;;-4.83;64.76;98686.20;218439;1279;24421;-70
2022/01/07 22:08:36;;;;;;;68.90;25.80;;;;;;;-4.84;64.77;98687.63;218427;1279;24052;-69
2022/01/07 22:13:48;;;;;;;59.80;25.00;;;;;;;-4.88;64.97;98687.33;219497;1279;25726;-71
2022/01/07 22:18:54;;;;;;;79.70;28.60;;;;;;;-4.93;65.05;98685.23;219442;1279;22660;-71
2022/01/07 22:23:56;;;;;;;75.50;28.00;;;;;;;-4.98;65.21;98678.48;219523;1280;22623;-70
2022/01/07 22:28:59;;;;;;;61.40;24.20;;;;;;;-5.00;65.43;98682.93;218420;1281;22673;-70
2022/01/07 22:34:01;;;;;;;60.60;22.40;;;;;;;-5.04;65.66;98687.20;218186;1281;24398;-70
2022/01/07 22:39:05;;;;;;;54.60;20.00;;;;;;;-5.08;65.77;98685.33;218896;1280;22838;-71
2022/01/07 22:44:13;;;;;;;46.80;19.40;;;;;;;-5.16;65.99;98676.02;219696;1279;22689;-70
2022/01/07 22:49:19;;;;;;;41.80;18.10;;;;;;;-5.24;66.05;98672.95;219560;1281;22763;-71
2022/01/07 22:54:31;;;;;;;41.30;18.10;;;;;;;-5.30;66.23;98675.91;219564;1280;22703;-71
2022/01/07 22:59:36;;;;;;;35.50;16.20;;;;;;;-5.32;66.40;98674.09;219488;1280;22699;-70
2022/01/07 23:04:39;;;;;;;29.40;12.30;;;;;;;-5.27;66.68;98675.80;219500;1280;22834;-71
2022/01/07 23:09:45;;;;;;;28.60;12.20;;;;;;;-5.19;66.75;98664.50;219282;1279;22707;-70
2022/01/07 23:14:53;;;;;;;32.00;12.60;;;;;;;-5.14;66.80;98648.55;219337;1281;22767;-70
2022/01/07 23:19:58;;;;;;;33.80;14.00;;;;;;;-5.13;66.84;98644.61;218423;1279;25592;-70
2022/01/07 23:25:37;;;;;;;32.80;12.00;;;;;;;-5.15;66.83;98650.15;218272;1281;25312;-70
2022/01/07 23:30:45;;;;;;;43.60;17.40;;;;;;;-5.20;66.90;98644.77;218410;1281;22635;-70
2022/01/07 23:36:11;;;;;;;47.80;17.70;;;;;;;-5.23;66.92;98637.11;219309;1280;22776;-71
2022/01/07 23:41:13;;;;;;;32.80;13.40;;;;;;;-5.23;67.22;98627.09;218454;1281;25540;-68
2022/01/07 23:46:16;;;;;;;32.30;12.70;;;;;;;-5.20;67.52;98625.23;218225;1280;24271;-71
2022/01/07 23:51:21;;;;;;;21.50;8.90;;;;;;;-5.08;67.54;98628.02;219407;1281;22729;-70
2022/01/07 23:56:41;;;;;;;26.30;10.10;;;;;;;-4.93;67.42;98624.09;219487;1281;22755;-71
